createdAt,value
2019-03-20T00:01:13.566Z,23.30
2019-03-20T00:06:18.428Z,23.20
2019-03-20T00:11:23.344Z,23.10
2019-03-20T00:16:27.899Z,23.10
2019-03-20T00:21:32.981Z,23.00
2019-03-20T00:26:37.818Z,22.90
2019-03-20T00:31:42.702Z,22.80
2019-03-20T00:36:47.530Z,22.80
2019-03-20T00:41:52.330Z,22.70
2019-03-20T00:46:56.892Z,22.70
2019-03-20T00:52:01.644Z,22.60
2019-03-20T00:57:06.626Z,22.50
2019-03-20T01:02:11.571Z,22.50
2019-03-20T01:07:16.501Z,22.40
2019-03-20T01:12:21.613Z,22.30
2019-03-20T01:17:26.296Z,22.30
2019-03-20T01:22:31.107Z,22.20
2019-03-20T01:27:35.804Z,22.20
2019-03-20T01:32:40.558Z,22.20
2019-03-20T01:37:45.689Z,22.10
2019-03-20T01:42:50.707Z,22.00
2019-03-20T01:47:55.619Z,22.00
2019-03-20T01:53:00.491Z,21.90
2019-03-20T01:58:05.685Z,21.90
2019-03-20T02:03:10.725Z,21.90
2019-03-20T02:08:15.793Z,21.90
2019-03-20T02:13:20.351Z,21.90
2019-03-20T02:18:24.862Z,21.80
2019-03-20T02:23:29.333Z,21.80
2019-03-20T02:28:34.183Z,21.80
2019-03-20T02:33:38.914Z,21.70
2019-03-20T02:38:43.946Z,21.80
2019-03-20T02:43:48.758Z,21.70
2019-03-20T02:48:53.528Z,21.70
2019-03-20T02:53:58.332Z,21.70
2019-03-20T02:59:03.204Z,21.70
2019-03-20T03:04:08.011Z,21.70
2019-03-20T03:09:14.113Z,21.60
2019-03-20T03:14:18.970Z,21.60
2019-03-20T03:19:24.085Z,21.60
2019-03-20T03:24:28.575Z,21.50
2019-03-20T03:29:33.426Z,21.50
2019-03-20T03:34:38.184Z,21.60
2019-03-20T03:39:43.747Z,21.50
2019-03-20T03:44:48.549Z,21.50
2019-03-20T03:49:53.405Z,21.40
2019-03-20T03:54:58.228Z,21.40
2019-03-20T04:00:03.888Z,21.40
2019-03-20T04:05:08.962Z,21.40
2019-03-20T04:10:15.472Z,21.40
2019-03-20T04:15:20.114Z,21.40
2019-03-20T04:20:24.957Z,21.40
2019-03-20T04:25:29.719Z,21.30
2019-03-20T04:30:34.569Z,21.30
2019-03-20T04:35:39.366Z,21.30
2019-03-20T04:40:43.922Z,21.20
2019-03-20T04:45:48.738Z,21.30
2019-03-20T04:50:53.514Z,21.30
2019-03-20T04:55:58.268Z,21.30
2019-03-20T05:01:03.191Z,21.20
2019-03-20T05:06:08.024Z,21.20
2019-03-20T05:11:13.471Z,21.20
2019-03-20T05:16:18.037Z,21.20
2019-03-20T05:21:22.743Z,21.20
2019-03-20T05:26:27.508Z,21.20
2019-03-20T05:31:31.951Z,21.30
2019-03-20T05:36:36.708Z,21.40
2019-03-20T05:41:41.216Z,21.50
2019-03-20T05:46:45.963Z,21.60
2019-03-20T05:51:50.752Z,21.70
2019-03-20T05:56:55.227Z,21.70
2019-03-20T06:02:00.006Z,21.80
2019-03-20T06:07:04.918Z,22.00
2019-03-20T06:12:10.062Z,22.10
2019-03-20T06:17:14.825Z,22.30
2019-03-20T06:22:19.682Z,22.40
2019-03-20T06:27:24.534Z,22.30
2019-03-20T06:32:29.390Z,22.20
2019-03-20T06:37:34.125Z,22.20
2019-03-20T06:42:38.893Z,22.20
2019-03-20T06:47:44.005Z,22.20
2019-03-20T06:52:49.008Z,22.20
2019-03-20T06:57:53.590Z,22.30
2019-03-20T07:02:59.818Z,22.30
2019-03-20T07:08:04.740Z,22.50
2019-03-20T07:13:09.482Z,22.60
2019-03-20T07:18:14.167Z,22.70
2019-03-20T07:23:19.112Z,22.80
2019-03-20T07:28:23.690Z,22.90
2019-03-20T07:33:28.218Z,22.90
2019-03-20T07:38:33.141Z,23.00
2019-03-20T07:43:37.972Z,22.90
2019-03-20T07:48:42.746Z,22.80
2019-03-20T07:53:47.636Z,22.90
2019-03-20T07:58:53.511Z,22.90
2019-03-20T08:03:58.317Z,22.80
2019-03-20T08:09:04.207Z,22.80
2019-03-20T08:14:08.974Z,22.70
2019-03-20T08:19:14.091Z,22.80
2019-03-20T08:24:18.909Z,22.80
2019-03-20T08:29:23.718Z,22.90
2019-03-20T08:34:28.235Z,22.90
2019-03-20T08:39:33.116Z,22.90
2019-03-20T08:44:37.904Z,22.70
2019-03-20T08:49:42.792Z,22.80
2019-03-20T08:54:47.682Z,22.60
2019-03-20T08:59:52.836Z,22.60
2019-03-20T09:04:57.319Z,22.60
2019-03-20T09:10:02.103Z,22.60
2019-03-20T09:15:11.142Z,23.00
2019-03-20T09:20:16.876Z,23.30
2019-03-20T09:25:25.770Z,23.20
2019-03-20T09:30:30.713Z,23.00
2019-03-20T09:35:35.977Z,22.90
2019-03-20T09:40:40.889Z,22.90
2019-03-20T09:45:45.737Z,22.90
2019-03-20T09:50:50.869Z,22.80
2019-03-20T09:55:55.960Z,23.00
2019-03-20T10:01:01.003Z,22.90
2019-03-20T10:06:06.207Z,23.00
2019-03-20T10:11:11.409Z,23.20
2019-03-20T10:16:16.290Z,23.30
2019-03-20T10:21:21.015Z,23.40
2019-03-20T10:26:25.819Z,23.50
2019-03-20T10:31:30.713Z,23.60
2019-03-20T10:36:35.537Z,23.50
2019-03-20T10:41:40.339Z,23.40
2019-03-20T10:46:45.552Z,23.50
2019-03-20T10:51:50.555Z,23.60
2019-03-20T10:56:55.310Z,23.60
2019-03-20T11:02:00.991Z,23.60
2019-03-20T11:07:08.938Z,23.70
2019-03-20T11:12:13.871Z,23.60
2019-03-20T11:17:18.780Z,23.60
2019-03-20T11:22:23.696Z,23.60
2019-03-20T11:27:28.689Z,23.50
2019-03-20T11:32:33.814Z,23.60
2019-03-20T11:37:38.609Z,23.60
2019-03-20T11:42:43.534Z,23.60
2019-03-20T11:47:48.724Z,23.60
2019-03-20T11:52:53.231Z,23.70
2019-03-20T11:57:58.143Z,23.70
2019-03-20T12:03:03.133Z,23.60
2019-03-20T12:08:07.973Z,23.50
2019-03-20T12:13:13.481Z,23.50
2019-03-20T12:18:18.263Z,23.30
2019-03-20T12:23:22.782Z,23.40
2019-03-20T12:28:27.924Z,23.60
2019-03-20T12:33:32.670Z,23.60
2019-03-20T12:38:37.712Z,23.40
2019-03-20T12:43:42.225Z,23.60
2019-03-20T12:48:48.116Z,23.70
2019-03-20T12:53:52.813Z,23.90
2019-03-20T12:58:57.963Z,24.10
2019-03-20T13:04:02.742Z,24.10
2019-03-20T13:09:08.177Z,24.20
2019-03-20T13:14:14.105Z,24.20
2019-03-20T13:19:20.090Z,24.30
2019-03-20T13:24:24.705Z,24.30
2019-03-20T13:29:29.531Z,24.30
2019-03-20T13:34:34.499Z,24.40
2019-03-20T13:39:39.333Z,24.40
2019-03-20T13:44:43.965Z,24.40
2019-03-20T13:49:48.803Z,24.50
2019-03-20T13:54:53.685Z,24.40
2019-03-20T13:59:59.839Z,24.40
2019-03-20T14:05:06.311Z,24.20
2019-03-20T14:10:28.081Z,24.00
2019-03-20T14:15:33.243Z,24.00
2019-03-20T14:20:38.097Z,23.90
2019-03-20T14:25:44.160Z,23.80
2019-03-20T14:30:49.207Z,23.80
2019-03-20T14:35:54.263Z,23.80
2019-03-20T14:40:59.141Z,23.70
2019-03-20T14:46:04.289Z,23.60
2019-03-20T14:51:09.208Z,23.80
2019-03-20T14:56:15.221Z,23.80
2019-03-20T15:01:19.932Z,23.80
2019-03-20T15:06:24.769Z,23.80
2019-03-20T15:11:30.346Z,23.80
2019-03-20T15:16:35.424Z,23.70
2019-03-20T15:21:40.488Z,23.80
2019-03-20T15:26:45.306Z,23.70
2019-03-20T15:31:50.350Z,23.70
2019-03-20T15:36:55.484Z,23.70
2019-03-20T15:42:00.574Z,23.70
2019-03-20T15:47:05.745Z,23.70
2019-03-20T15:52:10.398Z,23.80
2019-03-20T15:57:15.074Z,23.90
2019-03-20T16:02:19.941Z,23.90
2019-03-20T16:07:24.623Z,23.80
2019-03-20T16:12:29.446Z,23.90
2019-03-20T16:17:34.313Z,23.90
2019-03-20T16:22:39.241Z,24.00
2019-03-20T16:27:44.069Z,24.10
2019-03-20T16:32:48.923Z,24.10
2019-03-20T16:37:54.051Z,24.00
2019-03-20T16:42:58.902Z,24.00
2019-03-20T16:48:04.710Z,24.00
2019-03-20T16:53:09.561Z,24.00
2019-03-20T16:58:14.332Z,24.00
2019-03-20T17:03:19.195Z,24.00
2019-03-20T17:08:24.329Z,24.10
2019-03-20T17:13:29.114Z,24.10
2019-03-20T17:18:33.966Z,24.10
2019-03-20T17:23:39.080Z,24.10
2019-03-20T17:28:43.948Z,24.10
2019-03-20T17:33:49.180Z,24.10
2019-03-20T17:38:54.037Z,24.00
2019-03-20T17:43:59.221Z,23.90
2019-03-20T17:49:04.350Z,23.80
2019-03-20T17:54:09.283Z,23.80
2019-03-20T17:59:14.665Z,23.90
2019-03-20T18:04:19.583Z,23.90
2019-03-20T18:09:24.420Z,23.90
2019-03-20T18:14:29.208Z,24.00
2019-03-20T18:19:34.369Z,24.10
2019-03-20T18:24:39.226Z,24.20
2019-03-20T18:29:44.407Z,24.30
2019-03-20T18:34:49.385Z,24.40
2019-03-20T18:39:54.090Z,24.40
2019-03-20T18:44:58.967Z,24.40
2019-03-20T18:50:05.586Z,24.50
2019-03-20T18:55:12.575Z,24.50
2019-03-20T19:00:28.095Z,24.50
2019-03-20T19:05:51.000Z,24.50
2019-03-20T19:10:56.731Z,24.50
2019-03-20T19:16:01.642Z,24.40
2019-03-20T19:21:06.454Z,24.40
2019-03-20T19:26:13.036Z,24.30
2019-03-20T19:31:17.920Z,24.30
2019-03-20T19:36:22.707Z,24.10
2019-03-20T19:41:27.683Z,24.10
2019-03-20T19:46:32.640Z,24.00
2019-03-20T19:51:37.601Z,24.10
2019-03-20T19:56:42.738Z,24.10
2019-03-20T20:01:47.522Z,24.10
2019-03-20T20:06:52.762Z,24.30
2019-03-20T20:11:57.544Z,24.30
2019-03-20T20:17:02.754Z,24.30
2019-03-20T20:22:07.481Z,24.40
2019-03-20T20:27:13.246Z,24.40
2019-03-20T20:32:17.985Z,24.40
2019-03-20T20:37:22.860Z,24.30
2019-03-20T20:42:27.780Z,24.40
2019-03-20T20:47:32.671Z,24.50
2019-03-20T20:52:38.780Z,24.40
2019-03-20T20:57:44.033Z,24.40
2019-03-20T21:02:49.077Z,24.40
2019-03-20T21:07:53.937Z,24.40
2019-03-20T21:12:58.795Z,24.50
2019-03-20T21:18:15.952Z,24.40
2019-03-20T21:23:58.315Z,24.40
2019-03-20T21:29:34.569Z,24.50
2019-03-20T21:35:01.774Z,24.50
2019-03-20T21:40:09.428Z,24.50
2019-03-20T21:45:32.212Z,24.60
2019-03-20T21:50:43.062Z,24.50
2019-03-20T21:56:23.981Z,24.50
2019-03-20T22:01:37.534Z,24.50
2019-03-20T22:07:01.766Z,24.50
2019-03-20T22:12:18.402Z,24.50
2019-03-20T22:17:28.488Z,24.50
2019-03-20T22:22:38.881Z,24.50
2019-03-20T22:27:49.663Z,24.60
2019-03-20T22:33:09.413Z,24.60
2019-03-20T22:38:17.705Z,24.60
2019-03-20T22:43:30.507Z,24.50
2019-03-20T22:48:54.496Z,24.50
2019-03-20T22:54:21.811Z,24.40
2019-03-20T22:59:27.698Z,24.50
2019-03-20T23:04:35.557Z,24.40
2019-03-20T23:09:40.653Z,24.50
2019-03-20T23:14:45.415Z,24.40
2019-03-20T23:19:50.795Z,24.40
2019-03-20T23:24:57.601Z,24.30
2019-03-20T23:30:02.678Z,24.20
2019-03-20T23:35:10.786Z,24.10
2019-03-20T23:40:16.637Z,24.10
2019-03-20T23:45:21.854Z,24.00
2019-03-20T23:50:26.900Z,23.90
2019-03-20T23:55:31.724Z,23.80
